sensor_id;sensor_type;location;lat;lon;timestamp;pressure;altitude;pressure_sealevel;temperature;humidity
35226;BME280;21813;49.686;21.766;2023-12-28T00:02:00;98920.97;;;-0.63;100.00
35226;BME280;21813;49.686;21.766;2023-12-28T00:04:26;98919.28;;;-0.64;100.00
35226;BME280;21813;49.686;21.766;2023-12-28T00:06:54;98927.81;;;-0.63;100.00
35226;BME280;21813;49.686;21.766;2023-12-28T00:09:22;98921.97;;;-0.68;100.00
35226;BME280;21813;49.686;21.766;2023-12-28T00:11:50;98926.28;;;-0.70;100.00
35226;BME280;21813;49.686;21.766;2023-12-28T00:14:18;98910.50;;;-0.88;100.00
35226;BME280;21813;49.686;21.766;2023-12-28T00:16:46;98944.16;;;-0.69;100.00
35226;BME280;21813;49.686;21.766;2023-12-28T00:19:11;98924.09;;;-0.84;100.00
35226;BME280;21813;49.686;21.766;2023-12-28T00:21:41;98923.91;;;-0.78;100.00
35226;BME280;21813;49.686;21.766;2023-12-28T00:24:07;98901.84;;;-0.82;100.00
35226;BME280;21813;49.686;21.766;2023-12-28T00:26:34;98872.69;;;-0.75;100.00
35226;BME280;21813;49.686;21.766;2023-12-28T00:29:00;98860.72;;;-0.74;100.00
35226;BME280;21813;49.686;21.766;2023-12-28T00:31:26;98848.28;;;-0.88;100.00
35226;BME280;21813;49.686;21.766;2023-12-28T00:34:03;98865.16;;;-0.81;100.00
35226;BME280;21813;49.686;21.766;2023-12-28T00:36:31;98865.31;;;-0.87;100.00
35226;BME280;21813;49.686;21.766;2023-12-28T00:38:56;98865.25;;;-0.84;100.00
35226;BME280;21813;49.686;21.766;2023-12-28T00:41:24;98866.09;;;-0.83;100.00
35226;BME280;21813;49.686;21.766;2023-12-28T00:43:49;98877.66;;;-0.70;100.00
35226;BME280;21813;49.686;21.766;2023-12-28T00:46:15;98893.56;;;-0.59;100.00
35226;BME280;21813;49.686;21.766;2023-12-28T00:48:44;98868.09;;;-0.64;100.00
35226;BME280;21813;49.686;21.766;2023-12-28T00:51:28;98845.28;;;-0.71;100.00
35226;BME280;21813;49.686;21.766;2023-12-28T00:53:54;98857.78;;;-0.61;100.00
35226;BME280;21813;49.686;21.766;2023-12-28T00:56:20;98869.44;;;-0.51;100.00
35226;BME280;21813;49.686;21.766;2023-12-28T00:58:46;98877.75;;;-0.42;100.00
35226;BME280;21813;49.686;21.766;2023-12-28T01:01:14;98866.09;;;-0.53;100.00
35226;BME280;21813;49.686;21.766;2023-12-28T01:03:39;98877.66;;;-0.39;100.00
35226;BME280;21813;49.686;21.766;2023-12-28T01:06:06;98906.38;;;-0.28;100.00
35226;BME280;21813;49.686;21.766;2023-12-28T01:08:32;98902.84;;;-0.24;100.00
35226;BME280;21813;49.686;21.766;2023-12-28T01:11:01;98879.72;;;-0.21;100.00
35226;BME280;21813;49.686;21.766;2023-12-28T01:13:27;98885.00;;;0.02;100.00
35226;BME280;21813;49.686;21.766;2023-12-28T01:15:55;98869.94;;;0.21;100.00
35226;BME280;21813;49.686;21.766;2023-12-28T01:18:21;98880.28;;;0.46;100.00
35226;BME280;21813;49.686;21.766;2023-12-28T01:20:47;98848.94;;;0.64;100.00
35226;BME280;21813;49.686;21.766;2023-12-28T01:23:13;98850.16;;;0.78;100.00
35226;BME280;21813;49.686;21.766;2023-12-28T01:25:40;98852.13;;;0.97;100.00
35226;BME280;21813;49.686;21.766;2023-12-28T01:28:05;98840.69;;;1.05;100.00
35226;BME280;21813;49.686;21.766;2023-12-28T01:30:33;98834.44;;;1.12;100.00
35226;BME280;21813;49.686;21.766;2023-12-28T01:32:59;98856.19;;;1.27;100.00
35226;BME280;21813;49.686;21.766;2023-12-28T01:35:26;98850.06;;;1.31;100.00
35226;BME280;21813;49.686;21.766;2023-12-28T01:37:52;98855.88;;;1.36;100.00
35226;BME280;21813;49.686;21.766;2023-12-28T01:40:19;98840.63;;;1.31;100.00
35226;BME280;21813;49.686;21.766;2023-12-28T01:43:03;98841.19;;;1.40;100.00
35226;BME280;21813;49.686;21.766;2023-12-28T01:45:30;98850.19;;;1.51;100.00
35226;BME280;21813;49.686;21.766;2023-12-28T01:47:57;98824.44;;;1.53;100.00
35226;BME280;21813;49.686;21.766;2023-12-28T01:50:25;98843.56;;;1.69;100.00
35226;BME280;21813;49.686;21.766;2023-12-28T01:52:52;98829.19;;;1.63;100.00
35226;BME280;21813;49.686;21.766;2023-12-28T01:55:19;98817.56;;;1.76;100.00
35226;BME280;21813;49.686;21.766;2023-12-28T01:57:47;98811.72;;;1.73;100.00
35226;BME280;21813;49.686;21.766;2023-12-28T02:02:50;98807.44;;;1.95;100.00
35226;BME280;21813;49.686;21.766;2023-12-28T02:05:17;98801.28;;;1.99;100.00
35226;BME280;21813;49.686;21.766;2023-12-28T02:07:47;98794.34;;;2.01;100.00
35226;BME280;21813;49.686;21.766;2023-12-28T02:10:14;98797.59;;;2.06;100.00
35226;BME280;21813;49.686;21.766;2023-12-28T02:12:39;98784.97;;;2.00;100.00
35226;BME280;21813;49.686;21.766;2023-12-28T02:15:08;98786.47;;;2.06;100.00
35226;BME280;21813;49.686;21.766;2023-12-28T02:18:00;98782.03;;;2.09;100.00
35226;BME280;21813;49.686;21.766;2023-12-28T02:20:29;98776.31;;;2.03;100.00
35226;BME280;21813;49.686;21.766;2023-12-28T02:22:56;98776.34;;;2.01;100.00
35226;BME280;21813;49.686;21.766;2023-12-28T02:25:22;98758.59;;;1.95;100.00
35226;BME280;21813;49.686;21.766;2023-12-28T02:27:48;98771.88;;;2.06;100.00
35226;BME280;21813;49.686;21.766;2023-12-28T02:30:18;98764.94;;;2.08;100.00
35226;BME280;21813;49.686;21.766;2023-12-28T02:36:07;98764.69;;;2.14;100.00
35226;BME280;21813;49.686;21.766;2023-12-28T02:38:36;98751.84;;;2.14;100.00
35226;BME280;21813;49.686;21.766;2023-12-28T02:41:05;98757.78;;;2.16;100.00
35226;BME280;21813;49.686;21.766;2023-12-28T02:43:31;98742.34;;;2.16;100.00
35226;BME280;21813;49.686;21.766;2023-12-28T02:46:00;98737.91;;;2.20;100.00
35226;BME280;21813;49.686;21.766;2023-12-28T02:48:25;98721.88;;;2.13;100.00
35226;BME280;21813;49.686;21.766;2023-12-28T02:50:53;98733.22;;;2.30;100.00
35226;BME280;21813;49.686;21.766;2023-12-28T02:53:19;98735.38;;;2.40;100.00
35226;BME280;21813;49.686;21.766;2023-12-28T02:55:46;98722.50;;;2.40;100.00
35226;BME280;21813;49.686;21.766;2023-12-28T02:58:12;98730.94;;;2.44;100.00
35226;BME280;21813;49.686;21.766;2023-12-28T03:00:39;98710.47;;;2.41;100.00
35226;BME280;21813;49.686;21.766;2023-12-28T03:03:06;98728.03;;;2.51;100.00
35226;BME280;21813;49.686;21.766;2023-12-28T03:05:34;98738.63;;;2.64;100.00
35226;BME280;21813;49.686;21.766;2023-12-28T03:07:59;98725.25;;;2.56;100.00
35226;BME280;21813;49.686;21.766;2023-12-28T03:10:29;98718.53;;;2.53;100.00
35226;BME280;21813;49.686;21.766;2023-12-28T03:12:54;98740.31;;;2.65;100.00
35226;BME280;21813;49.686;21.766;2023-12-28T03:15:22;98725.91;;;2.61;100.00
35226;BME280;21813;49.686;21.766;2023-12-28T03:17:47;98729.06;;;2.67;100.00
35226;BME280;21813;49.686;21.766;2023-12-28T03:20:14;98734.88;;;2.73;100.00
35226;BME280;21813;49.686;21.766;2023-12-28T03:22:40;98722.13;;;2.70;100.00
35226;BME280;21813;49.686;21.766;2023-12-28T03:25:06;98720.22;;;2.73;100.00
35226;BME280;21813;49.686;21.766;2023-12-28T03:27:32;98709.03;;;2.74;100.00
35226;BME280;21813;49.686;21.766;2023-12-28T03:30:00;98715.72;;;2.78;100.00
35226;BME280;21813;49.686;21.766;2023-12-28T03:32:25;98707.06;;;2.81;100.00
35226;BME280;21813;49.686;21.766;2023-12-28T03:34:51;98719.09;;;2.80;100.00
35226;BME280;21813;49.686;21.766;2023-12-28T03:37:17;98720.63;;;2.84;100.00
35226;BME280;21813;49.686;21.766;2023-12-28T03:39:42;98717.34;;;2.81;100.00
35226;BME280;21813;49.686;21.766;2023-12-28T03:42:09;98709.28;;;2.88;100.00
35226;BME280;21813;49.686;21.766;2023-12-28T03:44:35;98707.56;;;2.89;100.00
35226;BME280;21813;49.686;21.766;2023-12-28T03:47:01;98699.88;;;2.87;100.00
35226;BME280;21813;49.686;21.766;2023-12-28T03:49:27;98703.25;;;2.89;100.00
35226;BME280;21813;49.686;21.766;2023-12-28T03:51:52;98705.81;;;2.89;100.00
35226;BME280;21813;49.686;21.766;2023-12-28T03:54:19;98718.69;;;2.89;100.00
35226;BME280;21813;49.686;21.766;2023-12-28T03:56:48;98723.00;;;2.89;100.00
35226;BME280;21813;49.686;21.766;2023-12-28T03:59:14;98708.41;;;2.89;100.00
35226;BME280;21813;49.686;21.766;2023-12-28T04:01:42;98708.44;;;2.88;100.00
35226;BME280;21813;49.686;21.766;2023-12-28T04:04:09;98699.78;;;2.90;100.00
35226;BME280;21813;49.686;21.766;2023-12-28T04:06:34;98689.34;;;2.93;100.00
35226;BME280;21813;49.686;21.766;2023-12-28T04:09:00;98687.44;;;2.97;100.00
35226;BME280;21813;49.686;21.766;2023-12-28T04:11:26;98709.66;;;2.99;100.00
35226;BME280;21813;49.686;21.766;2023-12-28T04:13:53;98689.47;;;2.90;100.00
35226;BME280;21813;49.686;21.766;2023-12-28T04:16:20;98690.16;;;2.94;100.00
35226;BME280;21813;49.686;21.766;2023-12-28T04:18:46;98696.00;;;2.97;100.00
35226;BME280;21813;49.686;21.766;2023-12-28T04:21:12;98698.47;;;3.00;100.00
35226;BME280;21813;49.686;21.766;2023-12-28T04:23:41;98689.06;;;2.99;100.00
35226;BME280;21813;49.686;21.766;2023-12-28T04:26:07;98689.06;;;2.99;100.00
35226;BME280;21813;49.686;21.766;2023-12-28T04:28:33;98684.47;;;3.06;100.00
35226;BME280;21813;49.686;21.766;2023-12-28T04:31:04;98680.94;;;3.08;100.00
35226;BME280;21813;49.686;21.766;2023-12-28T04:33:31;98680.03;;;3.09;100.00
35226;BME280;21813;49.686;21.766;2023-12-28T04:36:00;98685.47;;;3.03;100.00
35226;BME280;21813;49.686;21.766;2023-12-28T04:38:27;98690.34;;;3.09;100.00
35226;BME280;21813;49.686;21.766;2023-12-28T04:40:53;98691.09;;;3.11;100.00
35226;BME280;21813;49.686;21.766;2023-12-28T04:43:21;98662.28;;;3.03;100.00
35226;BME280;21813;49.686;21.766;2023-12-28T04:45:50;98657.75;;;3.08;100.00
35226;BME280;21813;49.686;21.766;2023-12-28T04:48:15;98678.06;;;3.15;100.00
35226;BME280;21813;49.686;21.766;2023-12-28T04:50:47;98679.06;;;3.12;100.00
35226;BME280;21813;49.686;21.766;2023-12-28T04:53:14;98679.13;;;3.10;100.00
35226;BME280;21813;49.686;21.766;2023-12-28T04:55:40;98674.06;;;3.09;100.00
35226;BME280;21813;49.686;21.766;2023-12-28T04:58:06;98685.03;;;3.13;100.00
35226;BME280;21813;49.686;21.766;2023-12-28T05:00:32;98680.66;;;3.15;100.00
35226;BME280;21813;49.686;21.766;2023-12-28T05:02:59;98672.81;;;3.18;100.00
35226;BME280;21813;49.686;21.766;2023-12-28T05:05:24;98673.63;;;3.18;100.00
35226;BME280;21813;49.686;21.766;2023-12-28T05:07:53;98676.00;;;3.23;100.00
35226;BME280;21813;49.686;21.766;2023-12-28T05:10:19;98664.28;;;3.16;100.00
35226;BME280;21813;49.686;21.766;2023-12-28T05:12:46;98690.41;;;3.27;100.00
35226;BME280;21813;49.686;21.766;2023-12-28T05:15:14;98681.84;;;3.26;100.00
35226;BME280;21813;49.686;21.766;2023-12-28T05:17:42;98675.28;;;3.19;100.00
35226;BME280;21813;49.686;21.766;2023-12-28T05:20:09;98663.88;;;3.25;100.00
35226;BME280;21813;49.686;21.766;2023-12-28T05:22:36;98651.34;;;3.17;100.00
35226;BME280;21813;49.686;21.766;2023-12-28T05:25:02;98672.22;;;3.30;100.00
35226;BME280;21813;49.686;21.766;2023-12-28T05:27:28;98672.22;;;3.30;100.00
35226;BME280;21813;49.686;21.766;2023-12-28T05:29:54;98669.81;;;3.27;100.00
35226;BME280;21813;49.686;21.766;2023-12-28T05:32:21;98654.50;;;3.24;100.00
35226;BME280;21813;49.686;21.766;2023-12-28T05:34:46;98684.91;;;3.34;100.00
35226;BME280;21813;49.686;21.766;2023-12-28T05:37:15;98664.66;;;3.27;100.00
35226;BME280;21813;49.686;21.766;2023-12-28T05:39:40;98669.81;;;3.27;100.00
35226;BME280;21813;49.686;21.766;2023-12-28T05:42:07;98651.94;;;3.24;100.00
35226;BME280;21813;49.686;21.766;2023-12-28T05:44:33;98671.28;;;3.32;100.00
35226;BME280;21813;49.686;21.766;2023-12-28T05:47:01;98683.94;;;3.37;100.00
35226;BME280;21813;49.686;21.766;2023-12-28T05:49:26;98679.06;;;3.31;100.00
35226;BME280;21813;49.686;21.766;2023-12-28T05:51:55;98681.78;;;3.28;100.00
35226;BME280;21813;49.686;21.766;2023-12-28T05:54:20;98689.00;;;3.38;100.00
35226;BME280;21813;49.686;21.766;2023-12-28T05:56:48;98701.03;;;3.38;100.00
35226;BME280;21813;49.686;21.766;2023-12-28T05:59:13;98690.75;;;3.38;100.00
35226;BME280;21813;49.686;21.766;2023-12-28T06:01:43;98665.28;;;3.32;100.00
35226;BME280;21813;49.686;21.766;2023-12-28T06:04:09;98696.47;;;3.44;100.00
35226;BME280;21813;49.686;21.766;2023-12-28T06:06:36;98699.81;;;3.46;100.00
35226;BME280;21813;49.686;21.766;2023-12-28T06:09:02;98703.09;;;3.50;100.00
35226;BME280;21813;49.686;21.766;2023-12-28T06:11:31;98704.88;;;3.48;100.00
35226;BME280;21813;49.686;21.766;2023-12-28T06:13:56;98697.31;;;3.45;100.00
35226;BME280;21813;49.686;21.766;2023-12-28T06:16:30;98695.34;;;3.50;100.00
35226;BME280;21813;49.686;21.766;2023-12-28T06:18:58;98690.31;;;3.47;100.00
35226;BME280;21813;49.686;21.766;2023-12-28T06:21:25;98708.44;;;3.64;100.00
35226;BME280;21813;49.686;21.766;2023-12-28T06:23:51;98715.47;;;3.61;100.00
35226;BME280;21813;49.686;21.766;2023-12-28T06:26:18;98717.22;;;3.60;100.00
35226;BME280;21813;49.686;21.766;2023-12-28T06:28:44;98720.53;;;3.62;100.00
35226;BME280;21813;49.686;21.766;2023-12-28T06:31:09;98710.66;;;3.53;100.00
35226;BME280;21813;49.686;21.766;2023-12-28T06:33:35;98704.75;;;3.51;100.00
35226;BME280;21813;49.686;21.766;2023-12-28T06:36:07;98723.13;;;3.62;100.00
35226;BME280;21813;49.686;21.766;2023-12-28T06:38:34;98714.00;;;3.55;100.00
35226;BME280;21813;49.686;21.766;2023-12-28T06:41:00;98720.53;;;3.62;100.00
35226;BME280;21813;49.686;21.766;2023-12-28T06:43:26;98730.72;;;3.65;100.00
35226;BME280;21813;49.686;21.766;2023-12-28T06:45:51;98729.19;;;3.61;100.00
35226;BME280;21813;49.686;21.766;2023-12-28T06:48:18;98737.69;;;3.63;100.00
35226;BME280;21813;49.686;21.766;2023-12-28T06:50:44;98736.69;;;3.66;100.00
35226;BME280;21813;49.686;21.766;2023-12-28T06:53:10;98734.22;;;3.64;100.00
35226;BME280;21813;49.686;21.766;2023-12-28T06:55:35;98728.91;;;3.67;100.00
35226;BME280;21813;49.686;21.766;2023-12-28T06:58:01;98708.28;;;3.67;100.00
35226;BME280;21813;49.686;21.766;2023-12-28T07:00:27;98711.63;;;3.69;100.00
35226;BME280;21813;49.686;21.766;2023-12-28T07:03:12;98709.53;;;3.77;100.00
35226;BME280;21813;49.686;21.766;2023-12-28T07:05:38;98727.69;;;3.93;100.00
35226;BME280;21813;49.686;21.766;2023-12-28T07:08:06;98724.41;;;3.89;100.00
35226;BME280;21813;49.686;21.766;2023-12-28T07:10:31;98726.72;;;3.95;100.00
35226;BME280;21813;49.686;21.766;2023-12-28T07:12:57;98718.34;;;3.90;100.00
35226;BME280;21813;49.686;21.766;2023-12-28T07:15:23;98717.28;;;3.94;100.00
35226;BME280;21813;49.686;21.766;2023-12-28T07:17:49;98722.00;;;4.04;100.00
35226;BME280;21813;49.686;21.766;2023-12-28T07:20:14;98726.22;;;4.06;100.00
35226;BME280;21813;49.686;21.766;2023-12-28T07:22:40;98719.91;;;4.12;100.00
35226;BME280;21813;49.686;21.766;2023-12-28T07:25:07;98723.25;;;4.14;100.00
35226;BME280;21813;49.686;21.766;2023-12-28T07:27:36;98727.81;;;4.26;100.00
35226;BME280;21813;49.686;21.766;2023-12-28T07:30:03;98725.00;;;4.30;100.00
35226;BME280;21813;49.686;21.766;2023-12-28T07:32:29;98710.50;;;4.28;100.00
35226;BME280;21813;49.686;21.766;2023-12-28T07:34:55;98716.91;;;4.38;100.00
35226;BME280;21813;49.686;21.766;2023-12-28T07:37:21;98718.66;;;4.37;100.00
35226;BME280;21813;49.686;21.766;2023-12-28T07:39:47;98726.59;;;4.50;100.00
35226;BME280;21813;49.686;21.766;2023-12-28T07:42:13;98719.94;;;4.46;100.00
35226;BME280;21813;49.686;21.766;2023-12-28T07:44:39;98728.50;;;4.47;100.00
35226;BME280;21813;49.686;21.766;2023-12-28T07:47:04;98736.56;;;4.58;100.00
35226;BME280;21813;49.686;21.766;2023-12-28T07:49:31;98735.41;;;4.63;100.00
35226;BME280;21813;49.686;21.766;2023-12-28T07:51:57;98746.44;;;4.67;100.00
35226;BME280;21813;49.686;21.766;2023-12-28T07:54:23;98732.81;;;4.63;100.00
35226;BME280;21813;49.686;21.766;2023-12-28T07:56:48;98728.28;;;4.68;100.00
35226;BME280;21813;49.686;21.766;2023-12-28T07:59:14;98716.88;;;4.72;100.00
35226;BME280;21813;49.686;21.766;2023-12-28T08:01:40;98722.81;;;4.74;100.00
35226;BME280;21813;49.686;21.766;2023-12-28T08:04:06;98726.72;;;4.81;100.00
35226;BME280;21813;49.686;21.766;2023-12-28T08:06:32;98718.06;;;4.82;100.00
35226;BME280;21813;49.686;21.766;2023-12-28T08:08:59;98724.75;;;4.86;100.00
35226;BME280;21813;49.686;21.766;2023-12-28T08:11:29;98717.59;;;4.92;100.00
35226;BME280;21813;49.686;21.766;2023-12-28T08:13:54;98708.94;;;4.93;100.00
35226;BME280;21813;49.686;21.766;2023-12-28T08:16:20;98718.81;;;5.02;100.00
35226;BME280;21813;49.686;21.766;2023-12-28T08:18:46;98703.31;;;5.02;100.00
35226;BME280;21813;49.686;21.766;2023-12-28T08:21:12;98720.84;;;5.12;100.00
35226;BME280;21813;49.686;21.766;2023-12-28T08:23:38;98709.91;;;5.07;100.00
35226;BME280;21813;49.686;21.766;2023-12-28T08:26:04;98727.75;;;5.12;100.00
35226;BME280;21813;49.686;21.766;2023-12-28T08:28:31;98726.69;;;5.16;100.00
35226;BME280;21813;49.686;21.766;2023-12-28T08:30:56;98723.00;;;5.20;100.00
35226;BME280;21813;49.686;21.766;2023-12-28T08:33:23;98729.84;;;5.21;100.00
35226;BME280;21813;49.686;21.766;2023-12-28T08:35:48;98723.69;;;5.23;100.00
35226;BME280;21813;49.686;21.766;2023-12-28T08:38:14;98725.94;;;5.29;100.00
35226;BME280;21813;49.686;21.766;2023-12-28T08:40:40;98728.56;;;5.45;100.00
35226;BME280;21813;49.686;21.766;2023-12-28T08:43:06;98716.38;;;5.47;100.00
35226;BME280;21813;49.686;21.766;2023-12-28T08:45:31;98723.41;;;5.61;100.00
35226;BME280;21813;49.686;21.766;2023-12-28T08:47:58;98697.22;;;5.67;100.00
35226;BME280;21813;49.686;21.766;2023-12-28T08:50:23;98699.28;;;5.76;100.00
35226;BME280;21813;49.686;21.766;2023-12-28T08:52:49;98698.56;;;5.90;100.00
35226;BME280;21813;49.686;21.766;2023-12-28T08:55:15;98692.19;;;5.79;100.00
35226;BME280;21813;49.686;21.766;2023-12-28T08:57:43;98690.81;;;5.90;100.00
35226;BME280;21813;49.686;21.766;2023-12-28T09:00:10;98703.72;;;5.90;100.00
35226;BME280;21813;49.686;21.766;2023-12-28T09:02:36;98694.53;;;5.84;100.00
35226;BME280;21813;49.686;21.766;2023-12-28T09:05:02;98693.69;;;5.84;100.00
35226;BME280;21813;49.686;21.766;2023-12-28T09:07:28;98707.81;;;5.94;100.00
35226;BME280;21813;49.686;21.766;2023-12-28T09:09:54;98704.91;;;6.00;100.00
35226;BME280;21813;49.686;21.766;2023-12-28T09:12:20;98697.88;;;6.02;100.00
35226;BME280;21813;49.686;21.766;2023-12-28T09:14:46;98708.97;;;6.04;100.00
35226;BME280;21813;49.686;21.766;2023-12-28T09:17:12;98691.09;;;6.15;100.00
35226;BME280;21813;49.686;21.766;2023-12-28T09:19:37;98671.31;;;6.14;100.00
35226;BME280;21813;49.686;21.766;2023-12-28T09:22:03;98665.94;;;6.17;100.00
35226;BME280;21813;49.686;21.766;2023-12-28T09:24:29;98674.09;;;6.25;100.00
35226;BME280;21813;49.686;21.766;2023-12-28T09:27:19;98669.59;;;6.29;100.00
35226;BME280;21813;49.686;21.766;2023-12-28T09:29:45;98666.38;;;6.39;100.00
35226;BME280;21813;49.686;21.766;2023-12-28T09:32:11;98685.44;;;6.52;100.00
35226;BME280;21813;49.686;21.766;2023-12-28T09:34:37;98658.47;;;6.56;100.00
35226;BME280;21813;49.686;21.766;2023-12-28T09:37:03;98679.94;;;6.73;100.00
35226;BME280;21813;49.686;21.766;2023-12-28T09:39:29;98684.50;;;6.83;100.00
35226;BME280;21813;49.686;21.766;2023-12-28T09:41:59;98676.16;;;6.92;100.00
35226;BME280;21813;49.686;21.766;2023-12-28T09:44:34;98662.94;;;6.97;100.00
35226;BME280;21813;49.686;21.766;2023-12-28T09:47:02;98657.19;;;7.06;100.00
35226;BME280;21813;49.686;21.766;2023-12-28T09:49:30;98657.19;;;7.06;100.00
35226;BME280;21813;49.686;21.766;2023-12-28T09:51:56;98657.09;;;7.07;100.00
35226;BME280;21813;49.686;21.766;2023-12-28T09:54:22;98653.69;;;7.07;100.00
35226;BME280;21813;49.686;21.766;2023-12-28T09:56:48;98664.06;;;7.07;100.00
35226;BME280;21813;49.686;21.766;2023-12-28T09:59:15;98656.91;;;7.10;100.00
35226;BME280;21813;49.686;21.766;2023-12-28T10:01:42;98658.66;;;7.10;100.00
35226;BME280;21813;49.686;21.766;2023-12-28T10:04:10;98656.91;;;7.10;100.00
35226;BME280;21813;49.686;21.766;2023-12-28T10:06:36;98653.56;;;7.23;100.00
35226;BME280;21813;49.686;21.766;2023-12-28T10:09:02;98648.19;;;7.26;100.00
35226;BME280;21813;49.686;21.766;2023-12-28T10:11:29;98640.13;;;7.30;100.00
35226;BME280;21813;49.686;21.766;2023-12-28T10:13:54;98633.09;;;7.32;100.00
35226;BME280;21813;49.686;21.766;2023-12-28T10:16:20;98637.16;;;7.36;100.00
35226;BME280;21813;49.686;21.766;2023-12-28T10:18:46;98647.97;;;7.43;100.00
35226;BME280;21813;49.686;21.766;2023-12-28T10:21:12;98647.59;;;7.49;100.00
35226;BME280;21813;49.686;21.766;2023-12-28T10:23:38;98650.09;;;7.50;100.00
35226;BME280;21813;49.686;21.766;2023-12-28T10:26:05;98634.44;;;7.52;100.00
35226;BME280;21813;49.686;21.766;2023-12-28T10:28:35;98640.03;;;7.59;100.00
35226;BME280;21813;49.686;21.766;2023-12-28T10:31:05;98623.69;;;7.58;100.00
35226;BME280;21813;49.686;21.766;2023-12-28T10:33:35;98617.66;;;7.58;100.00
35226;BME280;21813;49.686;21.766;2023-12-28T10:36:06;98623.19;;;7.66;100.00
35226;BME280;21813;49.686;21.766;2023-12-28T10:38:34;98628.69;;;7.74;100.00
35226;BME280;21813;49.686;21.766;2023-12-28T10:41:07;98620.59;;;7.66;100.00
35226;BME280;21813;49.686;21.766;2023-12-28T10:43:53;98615.19;;;7.69;100.00
35226;BME280;21813;49.686;21.766;2023-12-28T10:46:27;98607.81;;;7.63;100.00
35226;BME280;21813;49.686;21.766;2023-12-28T10:48:58;98607.53;;;7.67;100.00
35226;BME280;21813;49.686;21.766;2023-12-28T10:51:25;98607.53;;;7.67;100.00
35226;BME280;21813;49.686;21.766;2023-12-28T10:54:14;98612.50;;;7.70;100.00
35226;BME280;21813;49.686;21.766;2023-12-28T10:56:49;98604.81;;;7.69;100.00
35226;BME280;21813;49.686;21.766;2023-12-28T11:02:20;98600.06;;;7.75;100.00
35226;BME280;21813;49.686;21.766;2023-12-28T11:04:50;98608.78;;;7.74;100.00
35226;BME280;21813;49.686;21.766;2023-12-28T11:07:18;98602.59;;;7.77;100.00
35226;BME280;21813;49.686;21.766;2023-12-28T11:09:45;98594.59;;;7.80;100.00
35226;BME280;21813;49.686;21.766;2023-12-28T11:12:11;98586.59;;;7.83;100.00
35226;BME280;21813;49.686;21.766;2023-12-28T11:14:41;98593.66;;;7.81;100.00
35226;BME280;21813;49.686;21.766;2023-12-28T11:17:09;98588.25;;;7.84;100.00
35226;BME280;21813;49.686;21.766;2023-12-28T11:19:35;98583.81;;;7.86;100.00
35226;BME280;21813;49.686;21.766;2023-12-28T11:22:03;98575.50;;;7.81;100.00
35226;BME280;21813;49.686;21.766;2023-12-28T11:24:29;98564.38;;;7.79;100.00
35226;BME280;21813;49.686;21.766;2023-12-28T11:26:56;98569.19;;;7.85;100.00
35226;BME280;21813;49.686;21.766;2023-12-28T11:29:23;98568.34;;;7.84;100.00
35226;BME280;21813;49.686;21.766;2023-12-28T11:31:57;98561.28;;;7.86;100.00
35226;BME280;21813;49.686;21.766;2023-12-28T11:34:31;98551.53;;;7.90;100.00
35226;BME280;21813;49.686;21.766;2023-12-28T11:37:00;98557.25;;;7.95;100.00
35226;BME280;21813;49.686;21.766;2023-12-28T11:39:36;98553.19;;;7.91;100.00
35226;BME280;21813;49.686;21.766;2023-12-28T11:42:06;98550.88;;;7.86;100.00
35226;BME280;21813;49.686;21.766;2023-12-28T11:44:37;98555.28;;;7.86;100.00
35226;BME280;21813;49.686;21.766;2023-12-28T11:47:24;98559.50;;;7.87;100.00
35226;BME280;21813;49.686;21.766;2023-12-28T11:49:50;98548.19;;;7.88;100.00
35226;BME280;21813;49.686;21.766;2023-12-28T11:52:27;98546.53;;;7.87;100.00
35226;BME280;21813;49.686;21.766;2023-12-28T11:54:54;98543.75;;;7.90;100.00
35226;BME280;21813;49.686;21.766;2023-12-28T11:57:20;98543.00;;;7.88;100.00
35226;BME280;21813;49.686;21.766;2023-12-28T11:59:53;98540.50;;;7.86;100.00
35226;BME280;21813;49.686;21.766;2023-12-28T12:02:20;98544.91;;;7.86;100.00
35226;BME280;21813;49.686;21.766;2023-12-28T12:04:45;98547.59;;;7.84;100.00
35226;BME280;21813;49.686;21.766;2023-12-28T12:07:11;98532.63;;;7.88;100.00
35226;BME280;21813;49.686;21.766;2023-12-28T12:09:37;98538.56;;;7.90;100.00
35226;BME280;21813;49.686;21.766;2023-12-28T12:12:03;98543.00;;;7.88;100.00
35226;BME280;21813;49.686;21.766;2023-12-28T12:14:30;98546.53;;;7.87;100.00
35226;BME280;21813;49.686;21.766;2023-12-28T12:16:57;98549.25;;;7.85;100.00
35226;BME280;21813;49.686;21.766;2023-12-28T12:19:24;98548.41;;;7.85;100.00
35226;BME280;21813;49.686;21.766;2023-12-28T12:21:53;98549.75;;;7.78;100.00
35226;BME280;21813;49.686;21.766;2023-12-28T12:24:19;98547.13;;;7.78;100.00
35226;BME280;21813;49.686;21.766;2023-12-28T12:26:45;98549.19;;;7.73;100.00
35226;BME280;21813;49.686;21.766;2023-12-28T12:29:11;98557.94;;;7.72;100.00
35226;BME280;21813;49.686;21.766;2023-12-28T12:31:37;98535.06;;;7.64;100.00
35226;BME280;21813;49.686;21.766;2023-12-28T12:34:10;98553.16;;;7.66;100.00
35226;BME280;21813;49.686;21.766;2023-12-28T12:36:37;98563.72;;;7.63;100.00
35226;BME280;21813;49.686;21.766;2023-12-28T12:39:03;98562.69;;;7.65;100.00
35226;BME280;21813;49.686;21.766;2023-12-28T12:41:33;98550.75;;;7.63;100.00
35226;BME280;21813;49.686;21.766;2023-12-28T12:43:59;98537.56;;;7.66;100.00
35226;BME280;21813;49.686;21.766;2023-12-28T12:46:26;98551.25;;;7.68;100.00
35226;BME280;21813;49.686;21.766;2023-12-28T12:48:59;98543.38;;;7.69;100.00
35226;BME280;21813;49.686;21.766;2023-12-28T12:51:26;98540.09;;;7.67;100.00
35226;BME280;21813;49.686;21.766;2023-12-28T12:53:59;98539.13;;;7.68;100.00
35226;BME280;21813;49.686;21.766;2023-12-28T12:56:26;98541.94;;;7.65;100.00
35226;BME280;21813;49.686;21.766;2023-12-28T12:58:52;98528.53;;;7.59;100.00
35226;BME280;21813;49.686;21.766;2023-12-28T13:01:18;98536.22;;;7.60;100.00